aviador You're here:

KTUL Decoded Metar

TULSA in OK, USA
Report Time2018-07-22 11:53:00
UTC Time2018-07-22 12:40:19
Flight Rules vfr VFR
Wind350° at 04 kt
W.Decomp.*RWY 36: 3.8 kt HW 1.1 kt LCW
RWY 26: 0.4 kt HW 4.0 kt RCW
W.Rank350° ranks 6
Current wind is below 350° avg. (9.0)
Visibility9999 m
Phenomena:N/A
Clouds:Few 160 Hf
Overcast 250 Hf
Expected CloudBase > 400 ft AGL from Temp-Dew spread
Ceiling25,000 ft
Temp22°C (ISA +8)
Dew Point21°C (94% RH)
QNH1015 hPa
Density Alt1,916 ft
Elevation679 ft
Report Wrong Elevation
Raw Report
KTUL 221153Z 35004KT 10SM FEW160 OVC250 22/21 A2997 RMK AO2 SLP139
ACC W T02170211 10272 20211 53014=

Extra information for KTUL:More info

Metar Taf Metar & Taf Last 4 Metars F.Rules Stats Wind Profile Meteogram Temp Stats Airport Information Weather charts Add Link Nearby VenuesMetar ALERT Operation Metar Decoded Social comments

AIRNAV info for KTUL